Time;durP1;ratioP1;P1;durP2;ratioP2;P2;SDS_P1;SDS_P2;PMS_P1;PMS_P2;Temp;Humidity;BMP_temperature;BMP_pressure;BME280_temperature;BME280_humidity;BME280_pressure;Samples;Min_cycle;Max_cycle;Signal;HPM_P1;HPM_P2
2024/01/16 00:07:17;;;;;;;0.98;0.40;;;;;;;15.87;45.59;100224.84;21023641;28;20510;-70
2024/01/16 00:17:19;;;;;;;1.38;0.50;;;;;;;15.83;45.42;100223.44;20989506;28;20416;-70
2024/01/16 00:27:20;;;;;;;1.48;0.70;;;;;;;15.78;45.39;100230.06;21008917;28;20123;-69
2024/01/16 00:37:22;;;;;;;1.65;0.57;;;;;;;15.75;45.37;100238.41;21006111;28;20047;-69
2024/01/16 00:47:24;;;;;;;0.90;0.38;;;;;;;15.75;45.22;100257.19;21021288;28;21261;-69
2024/01/16 00:57:26;;;;;;;1.63;0.50;;;;;;;15.71;45.01;100271.88;21000448;28;20048;-69
2024/01/16 01:07:28;;;;;;;1.52;0.60;;;;;;;15.66;45.11;100266.06;20984192;28;20055;-69
2024/01/16 01:17:30;;;;;;;1.77;0.50;;;;;;;15.64;44.73;100260.00;20997800;28;20181;-69
2024/01/16 01:27:32;;;;;;;1.65;0.45;;;;;;;15.63;45.00;100277.09;21008102;28;20036;-69
2024/01/16 01:37:33;;;;;;;1.30;0.60;;;;;;;15.61;44.40;100282.56;21018040;28;20055;-70
2024/01/16 01:47:36;;;;;;;1.58;0.50;;;;;;;15.59;44.94;100278.34;20991727;28;20067;-69
2024/01/16 01:57:38;;;;;;;1.70;0.50;;;;;;;15.43;44.64;100247.50;20985260;28;20384;-70
2024/01/16 02:07:40;;;;;;;1.25;0.40;;;;;;;15.61;44.85;100287.94;20993077;28;20052;-69
2024/01/16 02:17:41;;;;;;;1.10;0.40;;;;;;;15.64;44.24;100287.66;20994537;28;20048;-69
2024/01/16 02:27:43;;;;;;;0.55;0.30;;;;;;;15.66;44.16;100279.50;20993335;28;20407;-69
2024/01/16 02:37:45;;;;;;;0.75;0.30;;;;;;;15.66;43.94;100301.78;20988324;28;20801;-69
2024/01/16 02:47:47;;;;;;;1.67;0.60;;;;;;;15.65;44.03;100307.31;21009270;28;20415;-70
2024/01/16 02:57:49;;;;;;;0.65;0.30;;;;;;;15.63;43.99;100306.59;21028988;28;20048;-69
2024/01/16 03:07:50;;;;;;;0.98;0.28;;;;;;;15.66;44.05;100309.84;20998858;28;20051;-69
2024/01/16 03:17:52;;;;;;;0.95;0.45;;;;;;;15.66;43.88;100307.16;20991985;28;20051;-69
2024/01/16 03:27:54;;;;;;;1.95;0.40;;;;;;;15.68;43.68;100299.00;20982907;28;20048;-69
2024/01/16 03:37:56;;;;;;;2.03;0.50;;;;;;;15.63;43.84;100293.19;21007472;28;20431;-69
2024/01/16 03:47:58;;;;;;;0.50;0.28;;;;;;;15.61;43.50;100287.09;21000178;28;20105;-69
2024/01/16 03:58:00;;;;;;;0.73;0.25;;;;;;;15.55;43.37;100287.66;21002959;28;20073;-69
2024/01/16 04:08:02;;;;;;;0.85;0.30;;;;;;;15.52;43.81;100288.75;20983465;28;20506;-69
2024/01/16 04:18:04;;;;;;;1.45;0.50;;;;;;;15.46;43.72;100279.41;21001672;28;20497;-69
2024/01/16 04:28:06;;;;;;;0.50;0.40;;;;;;;15.48;44.02;100282.84;21000240;28;20051;-69
2024/01/16 04:38:07;;;;;;;0.68;0.30;;;;;;;15.43;44.03;100284.22;21021061;28;20047;-69
2024/01/16 04:48:09;;;;;;;1.27;0.45;;;;;;;15.38;44.01;100287.28;21020899;28;20051;-69
2024/01/16 04:58:11;;;;;;;0.52;0.30;;;;;;;15.39;44.00;100282.78;20998599;28;20052;-69
2024/01/16 05:08:13;;;;;;;1.25;0.30;;;;;;;15.41;44.05;100278.13;20998561;28;20190;-69
2024/01/16 05:18:15;;;;;;;0.65;0.40;;;;;;;15.45;44.06;100279.56;21018411;28;20059;-69
2024/01/16 05:28:17;;;;;;;1.38;0.40;;;;;;;15.51;43.76;100266.47;20996524;28;20591;-69
2024/01/16 05:38:19;;;;;;;1.20;0.47;;;;;;;15.54;43.78;100259.13;20999056;28;20051;-69
2024/01/16 05:48:20;;;;;;;2.13;0.35;;;;;;;15.56;43.76;100257.16;20998499;28;20054;-70
2024/01/16 05:58:22;;;;;;;0.55;0.30;;;;;;;15.49;44.19;100241.63;20974390;28;20046;-69
2024/01/16 06:08:26;;;;;;;0.93;0.55;;;;;;;15.59;44.22;100267.63;21012642;28;20109;-69
2024/01/16 06:18:27;;;;;;;1.05;0.43;;;;;;;15.60;44.08;100258.59;20977863;28;20465;-69
2024/01/16 06:28:29;;;;;;;1.58;0.43;;;;;;;15.64;43.83;100249.28;20982016;28;20044;-69
2024/01/16 06:38:31;;;;;;;1.15;0.43;;;;;;;15.71;43.78;100261.16;20992755;28;20048;-69
2024/01/16 06:48:35;;;;;;;0.73;0.40;;;;;;;15.79;43.58;100263.97;20968800;28;20040;-69
2024/01/16 06:58:37;;;;;;;0.68;0.30;;;;;;;15.80;43.86;100267.53;20965266;28;20044;-69
2024/01/16 07:08:39;;;;;;;1.33;0.47;;;;;;;15.86;43.60;100263.44;20978332;28;20052;-69
2024/01/16 07:18:41;;;;;;;1.10;0.35;;;;;;;15.91;43.81;100288.06;20973441;28;20043;-69
2024/01/16 07:28:48;;;;;;;0.85;0.35;;;;;;;15.95;43.65;100290.31;21021969;28;20126;-69
2024/01/16 07:38:50;;;;;;;1.10;0.70;;;;;;;15.90;43.58;100267.56;21009016;28;20498;-69
2024/01/16 07:48:52;;;;;;;0.65;0.30;;;;;;;16.02;43.63;100290.63;20994516;28;20041;-70
2024/01/16 07:58:54;;;;;;;1.77;0.50;;;;;;;16.05;43.59;100295.72;20983860;28;20040;-69
2024/01/16 08:08:56;;;;;;;1.80;0.63;;;;;;;16.16;43.70;100301.94;20979667;28;20051;-77
2024/01/16 08:18:58;;;;;;;4.32;0.60;;;;;;;16.58;43.37;100316.97;20996390;28;20161;-74
2024/01/16 08:29:00;;;;;;;2.60;0.88;;;;;;;16.85;43.42;100312.69;20998458;28;20055;-78
2024/01/16 08:39:02;;;;;;;4.10;0.68;;;;;;;17.13;43.21;100316.34;20977460;28;20048;-83
2024/01/16 08:49:04;;;;;;;1.35;0.63;;;;;;;17.33;42.94;100321.69;20992216;28;20071;-75
2024/01/16 08:59:06;;;;;;;1.33;0.57;;;;;;;17.52;42.67;100328.84;20983531;28;20048;-74
2024/01/16 09:09:09;;;;;;;3.15;0.63;;;;;;;17.60;42.52;100326.25;20968169;28;20412;-76
2024/01/16 09:19:10;;;;;;;1.55;0.50;;;;;;;17.67;42.75;100331.84;20968497;28;20419;-75
2024/01/16 09:29:14;;;;;;;1.88;0.60;;;;;;;17.77;42.59;100323.75;21011149;28;20189;-71
2024/01/16 09:39:17;;;;;;;1.07;0.47;;;;;;;17.88;42.66;100323.53;20992487;28;20056;-74
2024/01/16 09:49:20;;;;;;;2.78;0.82;;;;;;;18.02;42.53;100333.00;21007968;28;20044;-72
2024/01/16 09:59:22;;;;;;;1.17;0.50;;;;;;;18.05;42.48;100321.91;21001273;28;20048;-72
2024/01/16 10:09:25;;;;;;;3.75;0.70;;;;;;;18.15;42.48;100329.94;20999573;28;20071;-72
2024/01/16 10:19:27;;;;;;;3.65;0.63;;;;;;;18.08;42.31;100316.22;21022579;28;20101;-73
2024/01/16 10:29:58;;;;;;;1.58;0.60;;;;;;;18.11;42.31;100325.84;21019438;28;20051;-73
2024/01/16 10:40:01;;;;;;;3.13;1.10;;;;;;;18.09;42.39;100312.53;21021314;28;20496;-72
2024/01/16 10:50:07;;;;;;;2.47;1.70;;;;;;;18.19;44.29;100311.63;21013412;28;20070;-72
2024/01/16 11:00:12;;;;;;;2.03;1.40;;;;;;;18.21;44.50;100304.25;21007191;28;20062;-72
2024/01/16 11:10:14;;;;;;;2.65;0.82;;;;;;;18.13;44.54;100305.00;20998757;28;20056;-72
2024/01/16 11:20:16;;;;;;;3.20;0.93;;;;;;;18.10;44.61;100292.66;21042683;28;20048;-72
2024/01/16 11:30:38;;;;;;;3.00;0.95;;;;;;;18.10;44.49;100289.97;21020036;28;20048;-72
2024/01/16 11:40:40;;;;;;;1.45;0.70;;;;;;;18.21;44.02;100294.31;21039840;28;20040;-72
2024/01/16 11:50:43;;;;;;;1.40;0.68;;;;;;;18.16;43.90;100280.44;21019400;28;20048;-72
2024/01/16 12:00:47;;;;;;;1.10;0.70;;;;;;;18.07;44.05;100275.97;21008311;28;20044;-72
2024/01/16 12:10:49;;;;;;;1.55;0.82;;;;;;;18.03;44.06;100259.28;20952057;28;20055;-72
2024/01/16 12:20:51;;;;;;;5.35;0.60;;;;;;;18.03;43.91;100242.28;20986487;28;20459;-74
2024/01/16 12:30:53;;;;;;;3.65;0.93;;;;;;;18.01;43.93;100223.56;21011046;28;20048;-74
2024/01/16 12:40:55;;;;;;;1.55;0.50;;;;;;;17.99;43.80;100225.53;21035600;28;20416;-74
2024/01/16 12:51:04;;;;;;;2.25;0.90;;;;;;;17.95;43.67;100203.47;21009253;28;20059;-73
2024/01/16 13:01:22;;;;;;;2.38;0.93;;;;;;;17.92;43.76;100211.84;21001634;28;20496;-74
2024/01/16 13:11:54;;;;;;;2.78;0.85;;;;;;;17.96;43.45;100199.78;20982426;28;20068;-74
2024/01/16 13:21:57;;;;;;;1.95;0.75;;;;;;;17.97;43.37;100196.06;21006981;28;20170;-74
2024/01/16 13:31:59;;;;;;;3.70;0.95;;;;;;;17.95;43.26;100184.63;21001956;28;20055;-74
2024/01/16 13:42:01;;;;;;;1.75;0.77;;;;;;;17.93;43.04;100183.06;21020524;28;20067;-74
2024/01/16 13:52:03;;;;;;;2.72;0.60;;;;;;;17.92;42.94;100165.22;20954985;28;20048;-74
2024/01/16 14:02:06;;;;;;;2.20;0.60;;;;;;;17.88;42.91;100161.13;20935796;28;20122;-74
2024/01/16 14:12:08;;;;;;;1.90;0.70;;;;;;;17.89;42.65;100158.28;20936335;28;20488;-74
2024/01/16 14:22:10;;;;;;;1.77;0.90;;;;;;;17.82;42.73;100152.69;20949557;28;20492;-74
2024/01/16 14:32:12;;;;;;;1.83;0.60;;;;;;;17.79;42.68;100144.91;21024457;28;20048;-73
2024/01/16 14:42:14;;;;;;;3.50;0.88;;;;;;;17.61;43.78;100127.91;20976596;28;20118;-71
2024/01/16 14:52:17;;;;;;;0.93;0.45;;;;;;;17.73;43.27;100144.69;21002853;28;20052;-71
2024/01/16 15:02:20;;;;;;;2.08;0.70;;;;;;;17.80;43.82;100162.75;21023116;28;20063;-68
2024/01/16 15:12:32;;;;;;;2.40;0.57;;;;;;;17.80;44.17;100140.38;21024094;28;20047;-72
2024/01/16 15:22:44;;;;;;;19.33;6.20;;;;;;;17.71;45.43;100128.69;21020489;28;20055;-72
2024/01/16 15:32:50;;;;;;;7.18;4.00;;;;;;;17.62;45.93;100121.50;21016053;28;20514;-71
2024/01/16 15:42:54;;;;;;;4.43;2.30;;;;;;;17.57;46.20;100124.69;20984846;28;20078;-75
2024/01/16 15:52:57;;;;;;;4.25;1.83;;;;;;;17.52;48.18;100116.22;20961610;28;20059;-74
2024/01/16 16:02:59;;;;;;;4.15;2.00;;;;;;;17.55;50.38;100110.53;20964732;28;20048;-72
2024/01/16 16:13:03;;;;;;;2.72;1.50;;;;;;;17.55;51.16;100126.69;20956336;28;20132;-69
2024/01/16 16:23:07;;;;;;;1.48;1.00;;;;;;;17.40;50.99;100118.28;20974276;28;20058;-74
2024/01/16 16:33:09;;;;;;;2.60;1.00;;;;;;;17.24;50.75;100121.66;20993784;28;20416;-68
2024/01/16 16:43:11;;;;;;;1.60;0.80;;;;;;;17.23;50.31;100123.50;20977634;28;20069;-69
2024/01/16 16:53:13;;;;;;;3.83;0.98;;;;;;;17.35;49.62;100120.59;21023969;28;20078;-69
2024/01/16 17:03:14;;;;;;;1.20;0.60;;;;;;;17.36;48.94;100122.28;21002394;28;20109;-68
2024/01/16 17:13:16;;;;;;;3.63;0.82;;;;;;;17.33;48.53;100128.81;20996547;28;20058;-69
2024/01/16 17:23:19;;;;;;;1.15;0.75;;;;;;;17.28;47.92;100127.59;20980141;28;20054;-68
2024/01/16 17:33:21;;;;;;;1.20;0.73;;;;;;;17.16;47.71;100100.03;20971810;28;20123;-70
2024/01/16 17:43:24;;;;;;;0.70;0.60;;;;;;;17.11;47.35;100097.78;20967892;28;20205;-69
2024/01/16 17:53:27;;;;;;;1.67;0.80;;;;;;;17.14;46.94;100105.56;20954071;28;20056;-69
2024/01/16 18:03:29;;;;;;;1.75;0.70;;;;;;;17.13;46.64;100095.78;20952347;28;20055;-71
2024/01/16 18:13:43;;;;;;;2.05;0.85;;;;;;;17.13;46.25;100093.09;20944137;28;20069;-74
2024/01/16 18:23:47;;;;;;;1.77;0.90;;;;;;;17.12;46.28;100088.72;20983707;28;20044;-74
2024/01/16 18:33:49;;;;;;;1.73;0.77;;;;;;;17.00;46.27;100076.50;20977627;28;20081;-71
2024/01/16 18:43:52;;;;;;;1.13;0.75;;;;;;;16.87;46.08;100069.59;20977809;28;20141;-71
2024/01/16 18:53:54;;;;;;;1.60;1.00;;;;;;;16.72;45.92;100049.56;21001187;28;20052;-71
2024/01/16 19:03:56;;;;;;;0.98;0.75;;;;;;;16.63;45.58;100038.72;21024192;28;20044;-71
2024/01/16 19:13:58;;;;;;;1.52;1.25;;;;;;;16.53;45.41;100021.81;21015896;28;20619;-71
2024/01/16 19:23:59;;;;;;;1.38;0.80;;;;;;;16.49;45.35;100017.75;21025881;28;20047;-71
2024/01/16 19:34:02;;;;;;;2.03;1.40;;;;;;;16.47;45.03;100008.97;21012238;28;20105;-72
2024/01/16 19:44:05;;;;;;;1.25;0.90;;;;;;;16.41;45.15;100013.09;21024671;28;20058;-72
2024/01/16 19:54:07;;;;;;;1.40;1.02;;;;;;;16.36;44.71;99997.44;20978215;28;20048;-72
2024/01/16 20:04:10;;;;;;;1.60;1.17;;;;;;;16.31;44.68;99985.44;21011311;28;20052;-71
2024/01/16 20:14:12;;;;;;;2.70;1.00;;;;;;;16.28;44.44;99959.72;21042349;28;20048;-71
2024/01/16 20:24:14;;;;;;;1.33;0.90;;;;;;;16.25;44.42;99943.91;20987328;28;20075;-71
2024/01/16 20:34:16;;;;;;;1.50;1.00;;;;;;;16.23;44.25;99922.59;20994509;28;20052;-71
2024/01/16 20:44:21;;;;;;;2.45;1.17;;;;;;;16.21;44.00;99911.16;20997391;28;20056;-72
2024/01/16 20:54:24;;;;;;;1.70;1.10;;;;;;;16.19;43.90;99906.91;20976880;28;20052;-72
2024/01/16 21:04:26;;;;;;;1.73;1.05;;;;;;;16.18;43.77;99894.47;21011530;28;20071;-72
2024/01/16 21:14:27;;;;;;;1.95;1.30;;;;;;;16.17;43.80;99888.28;21010052;28;20051;-72
2024/01/16 21:24:29;;;;;;;2.13;0.90;;;;;;;16.16;43.58;99866.94;21018426;28;20048;-71
2024/01/16 21:34:31;;;;;;;1.70;1.42;;;;;;;16.13;43.52;99868.09;20996195;28;20048;-71
2024/01/16 21:44:34;;;;;;;1.67;1.17;;;;;;;16.13;43.36;99861.84;21003320;28;20071;-71
2024/01/16 21:54:35;;;;;;;1.92;1.30;;;;;;;16.11;43.32;99843.19;21019442;28;20149;-71
2024/01/16 22:04:37;;;;;;;1.10;0.90;;;;;;;16.07;43.12;99842.66;21014869;28;20044;-71
2024/01/16 22:14:41;;;;;;;1.95;1.10;;;;;;;16.06;43.29;99824.00;21019560;28;20063;-72
2024/01/16 22:24:43;;;;;;;2.55;1.15;;;;;;;16.02;43.12;99812.75;21009746;28;20122;-72
2024/01/16 22:34:44;;;;;;;3.10;1.48;;;;;;;16.01;43.00;99789.59;21019082;28;20058;-71
2024/01/16 22:44:47;;;;;;;2.05;1.33;;;;;;;15.91;42.81;99767.34;20998780;28;20044;-71
2024/01/16 22:54:49;;;;;;;2.17;1.10;;;;;;;15.99;42.99;99778.16;21006820;28;20488;-71
2024/01/16 23:04:52;;;;;;;1.83;0.90;;;;;;;15.86;42.71;99740.03;21048733;28;20049;-71
2024/01/16 23:14:54;;;;;;;1.58;1.00;;;;;;;15.97;42.63;99739.03;21025678;28;20052;-72
2024/01/16 23:24:56;;;;;;;1.92;0.95;;;;;;;15.93;42.64;99730.44;21031194;28;20052;-72
2024/01/16 23:34:58;;;;;;;2.13;1.08;;;;;;;15.94;42.35;99716.03;21004890;28;20043;-72
2024/01/16 23:45:00;;;;;;;2.05;1.15;;;;;;;15.91;42.18;99686.81;21030493;28;20074;-72
2024/01/16 23:55:02;;;;;;;1.38;0.95;;;;;;;15.84;42.21;99678.50;21008108;28;20097;-71
